sensor_id;sensor_type;location;lat;lon;timestamp;P1;durP1;ratioP1;P2;durP2;ratioP2
26977;SDS011;56314;48.088;11.642;2022-07-12T00:01:28;4.22;;;3.22;;
26977;SDS011;56314;48.088;11.642;2022-07-12T00:03:53;5.35;;;2.83;;
26977;SDS011;56314;48.088;11.642;2022-07-12T00:06:18;3.40;;;3.10;;
26977;SDS011;56314;48.088;11.642;2022-07-12T00:08:44;3.40;;;3.03;;
26977;SDS011;56314;48.088;11.642;2022-07-12T00:11:09;4.60;;;3.10;;
26977;SDS011;56314;48.088;11.642;2022-07-12T00:13:34;3.53;;;2.92;;
26977;SDS011;56314;48.088;11.642;2022-07-12T00:16:00;3.55;;;3.03;;
26977;SDS011;56314;48.088;11.642;2022-07-12T00:18:25;3.92;;;2.90;;
26977;SDS011;56314;48.088;11.642;2022-07-12T00:20:50;3.03;;;2.80;;
26977;SDS011;56314;48.088;11.642;2022-07-12T00:23:16;3.78;;;2.85;;
26977;SDS011;56314;48.088;11.642;2022-07-12T00:25:42;3.60;;;3.22;;
26977;SDS011;56314;48.088;11.642;2022-07-12T00:28:08;4.32;;;3.38;;
26977;SDS011;56314;48.088;11.642;2022-07-12T00:30:33;2.78;;;2.58;;
26977;SDS011;56314;48.088;11.642;2022-07-12T00:32:59;2.90;;;2.65;;
26977;SDS011;56314;48.088;11.642;2022-07-12T00:35:24;3.80;;;3.03;;
26977;SDS011;56314;48.088;11.642;2022-07-12T00:37:50;4.38;;;3.00;;
26977;SDS011;56314;48.088;11.642;2022-07-12T00:40:16;3.75;;;3.20;;
26977;SDS011;56314;48.088;11.642;2022-07-12T00:42:41;4.45;;;2.97;;
26977;SDS011;56314;48.088;11.642;2022-07-12T00:45:07;3.28;;;2.85;;
26977;SDS011;56314;48.088;11.642;2022-07-12T00:50:08;4.63;;;3.30;;
26977;SDS011;56314;48.088;11.642;2022-07-12T00:52:42;3.03;;;2.63;;
26977;SDS011;56314;48.088;11.642;2022-07-12T00:55:08;3.15;;;2.78;;
26977;SDS011;56314;48.088;11.642;2022-07-12T00:57:35;3.28;;;3.05;;
26977;SDS011;56314;48.088;11.642;2022-07-12T01:00:02;4.18;;;3.25;;
26977;SDS011;56314;48.088;11.642;2022-07-12T01:02:30;3.38;;;3.08;;
26977;SDS011;56314;48.088;11.642;2022-07-12T01:04:56;3.75;;;3.45;;
26977;SDS011;56314;48.088;11.642;2022-07-12T01:07:23;4.78;;;3.30;;
26977;SDS011;56314;48.088;11.642;2022-07-12T01:09:51;3.78;;;3.38;;
26977;SDS011;56314;48.088;11.642;2022-07-12T01:12:18;3.20;;;2.92;;
26977;SDS011;56314;48.088;11.642;2022-07-12T01:14:45;4.43;;;3.33;;
26977;SDS011;56314;48.088;11.642;2022-07-12T01:17:11;4.35;;;3.10;;
26977;SDS011;56314;48.088;11.642;2022-07-12T01:19:38;3.03;;;2.80;;
26977;SDS011;56314;48.088;11.642;2022-07-12T01:22:05;3.00;;;2.70;;
26977;SDS011;56314;48.088;11.642;2022-07-12T01:24:34;3.20;;;2.90;;
26977;SDS011;56314;48.088;11.642;2022-07-12T01:27:00;3.95;;;3.33;;
26977;SDS011;56314;48.088;11.642;2022-07-12T01:29:27;3.00;;;2.78;;
26977;SDS011;56314;48.088;11.642;2022-07-12T01:31:53;3.00;;;2.78;;
26977;SDS011;56314;48.088;11.642;2022-07-12T01:34:20;3.25;;;2.92;;
26977;SDS011;56314;48.088;11.642;2022-07-12T01:36:46;3.20;;;2.75;;
26977;SDS011;56314;48.088;11.642;2022-07-12T01:39:12;6.68;;;3.03;;
26977;SDS011;56314;48.088;11.642;2022-07-12T01:41:38;3.08;;;2.78;;
26977;SDS011;56314;48.088;11.642;2022-07-12T01:44:04;2.88;;;2.67;;
26977;SDS011;56314;48.088;11.642;2022-07-12T01:46:29;3.22;;;2.92;;
26977;SDS011;56314;48.088;11.642;2022-07-12T01:48:55;3.50;;;2.50;;
26977;SDS011;56314;48.088;11.642;2022-07-12T01:51:21;4.68;;;3.00;;
26977;SDS011;56314;48.088;11.642;2022-07-12T01:53:47;3.30;;;3.00;;
26977;SDS011;56314;48.088;11.642;2022-07-12T01:56:12;3.95;;;3.13;;
26977;SDS011;56314;48.088;11.642;2022-07-12T01:58:38;3.05;;;2.85;;
26977;SDS011;56314;48.088;11.642;2022-07-12T02:01:04;3.40;;;3.10;;
26977;SDS011;56314;48.088;11.642;2022-07-12T02:03:30;4.22;;;3.20;;
26977;SDS011;56314;48.088;11.642;2022-07-12T02:05:59;3.08;;;2.83;;
26977;SDS011;56314;48.088;11.642;2022-07-12T02:08:24;3.50;;;3.20;;
26977;SDS011;56314;48.088;11.642;2022-07-12T02:10:50;3.28;;;2.88;;
26977;SDS011;56314;48.088;11.642;2022-07-12T02:13:15;4.40;;;3.50;;
26977;SDS011;56314;48.088;11.642;2022-07-12T02:15:40;3.55;;;3.08;;
26977;SDS011;56314;48.088;11.642;2022-07-12T02:18:06;4.90;;;3.40;;
26977;SDS011;56314;48.088;11.642;2022-07-12T02:20:32;3.85;;;3.17;;
26977;SDS011;56314;48.088;11.642;2022-07-12T02:22:57;4.50;;;2.97;;
26977;SDS011;56314;48.088;11.642;2022-07-12T02:25:22;4.00;;;3.38;;
26977;SDS011;56314;48.088;11.642;2022-07-12T02:27:48;3.67;;;3.20;;
26977;SDS011;56314;48.088;11.642;2022-07-12T02:30:14;3.58;;;3.25;;
26977;SDS011;56314;48.088;11.642;2022-07-12T02:32:39;4.53;;;3.85;;
26977;SDS011;56314;48.088;11.642;2022-07-12T02:35:05;3.75;;;2.80;;
26977;SDS011;56314;48.088;11.642;2022-07-12T02:37:31;4.03;;;3.53;;
26977;SDS011;56314;48.088;11.642;2022-07-12T02:39:56;3.58;;;3.28;;
26977;SDS011;56314;48.088;11.642;2022-07-12T02:42:41;4.75;;;3.67;;
26977;SDS011;56314;48.088;11.642;2022-07-12T02:45:08;4.63;;;3.35;;
26977;SDS011;56314;48.088;11.642;2022-07-12T02:47:36;4.90;;;4.03;;
26977;SDS011;56314;48.088;11.642;2022-07-12T02:50:03;6.05;;;4.20;;
26977;SDS011;56314;48.088;11.642;2022-07-12T02:52:29;3.83;;;3.42;;
26977;SDS011;56314;48.088;11.642;2022-07-12T02:54:54;4.70;;;3.80;;
26977;SDS011;56314;48.088;11.642;2022-07-12T02:57:20;7.43;;;4.38;;
26977;SDS011;56314;48.088;11.642;2022-07-12T02:59:45;3.88;;;3.58;;
26977;SDS011;56314;48.088;11.642;2022-07-12T03:02:10;3.72;;;3.42;;
26977;SDS011;56314;48.088;11.642;2022-07-12T03:04:36;4.13;;;3.50;;
26977;SDS011;56314;48.088;11.642;2022-07-12T03:07:01;4.45;;;3.53;;
26977;SDS011;56314;48.088;11.642;2022-07-12T03:09:26;3.90;;;3.45;;
26977;SDS011;56314;48.088;11.642;2022-07-12T03:11:52;4.28;;;3.47;;
26977;SDS011;56314;48.088;11.642;2022-07-12T03:14:17;4.30;;;3.90;;
26977;SDS011;56314;48.088;11.642;2022-07-12T03:16:43;3.50;;;3.10;;
26977;SDS011;56314;48.088;11.642;2022-07-12T03:19:08;4.70;;;4.22;;
26977;SDS011;56314;48.088;11.642;2022-07-12T03:21:34;4.13;;;3.60;;
26977;SDS011;56314;48.088;11.642;2022-07-12T03:23:59;4.00;;;3.58;;
26977;SDS011;56314;48.088;11.642;2022-07-12T03:26:24;3.80;;;3.45;;
26977;SDS011;56314;48.088;11.642;2022-07-12T03:28:50;4.47;;;3.95;;
26977;SDS011;56314;48.088;11.642;2022-07-12T03:31:15;4.25;;;3.85;;
26977;SDS011;56314;48.088;11.642;2022-07-12T03:33:40;3.88;;;3.45;;
26977;SDS011;56314;48.088;11.642;2022-07-12T03:36:06;4.53;;;3.70;;
26977;SDS011;56314;48.088;11.642;2022-07-12T03:38:33;7.57;;;4.47;;
26977;SDS011;56314;48.088;11.642;2022-07-12T03:40:59;4.47;;;3.90;;
26977;SDS011;56314;48.088;11.642;2022-07-12T03:43:24;4.63;;;4.15;;
26977;SDS011;56314;48.088;11.642;2022-07-12T03:45:50;5.90;;;4.05;;
26977;SDS011;56314;48.088;11.642;2022-07-12T03:48:15;4.72;;;4.22;;
26977;SDS011;56314;48.088;11.642;2022-07-12T03:50:40;6.65;;;4.10;;
26977;SDS011;56314;48.088;11.642;2022-07-12T03:53:06;5.38;;;3.75;;
26977;SDS011;56314;48.088;11.642;2022-07-12T03:55:31;6.50;;;4.35;;
26977;SDS011;56314;48.088;11.642;2022-07-12T03:57:56;4.55;;;4.05;;
26977;SDS011;56314;48.088;11.642;2022-07-12T04:00:22;6.95;;;4.38;;
26977;SDS011;56314;48.088;11.642;2022-07-12T04:02:47;6.78;;;3.63;;
26977;SDS011;56314;48.088;11.642;2022-07-12T04:05:13;6.80;;;4.53;;
26977;SDS011;56314;48.088;11.642;2022-07-12T04:07:38;4.30;;;3.90;;
26977;SDS011;56314;48.088;11.642;2022-07-12T04:10:05;4.95;;;4.20;;
26977;SDS011;56314;48.088;11.642;2022-07-12T04:12:31;7.03;;;4.78;;
26977;SDS011;56314;48.088;11.642;2022-07-12T04:14:56;7.57;;;6.30;;
26977;SDS011;56314;48.088;11.642;2022-07-12T04:17:22;5.30;;;4.80;;
26977;SDS011;56314;48.088;11.642;2022-07-12T04:19:47;5.55;;;4.30;;
26977;SDS011;56314;48.088;11.642;2022-07-12T04:22:13;8.73;;;4.40;;
26977;SDS011;56314;48.088;11.642;2022-07-12T04:24:38;4.80;;;4.22;;
26977;SDS011;56314;48.088;11.642;2022-07-12T04:27:03;5.70;;;4.40;;
26977;SDS011;56314;48.088;11.642;2022-07-12T04:29:29;9.20;;;4.85;;
26977;SDS011;56314;48.088;11.642;2022-07-12T04:31:54;4.97;;;4.47;;
26977;SDS011;56314;48.088;11.642;2022-07-12T04:34:19;5.82;;;4.30;;
26977;SDS011;56314;48.088;11.642;2022-07-12T04:36:45;5.10;;;4.60;;
26977;SDS011;56314;48.088;11.642;2022-07-12T04:39:12;4.63;;;4.22;;
26977;SDS011;56314;48.088;11.642;2022-07-12T04:41:38;7.85;;;5.15;;
26977;SDS011;56314;48.088;11.642;2022-07-12T04:44:04;4.93;;;4.38;;
26977;SDS011;56314;48.088;11.642;2022-07-12T04:46:32;4.97;;;4.35;;
26977;SDS011;56314;48.088;11.642;2022-07-12T04:48:58;6.85;;;4.63;;
26977;SDS011;56314;48.088;11.642;2022-07-12T04:51:23;5.47;;;4.78;;
26977;SDS011;56314;48.088;11.642;2022-07-12T04:53:49;6.68;;;4.97;;
26977;SDS011;56314;48.088;11.642;2022-07-12T04:56:14;6.80;;;4.82;;
26977;SDS011;56314;48.088;11.642;2022-07-12T04:58:40;5.80;;;4.75;;
26977;SDS011;56314;48.088;11.642;2022-07-12T05:01:05;7.13;;;4.57;;
26977;SDS011;56314;48.088;11.642;2022-07-12T05:03:32;6.90;;;4.38;;
26977;SDS011;56314;48.088;11.642;2022-07-12T05:05:57;4.72;;;4.18;;
26977;SDS011;56314;48.088;11.642;2022-07-12T05:08:23;8.27;;;4.15;;
26977;SDS011;56314;48.088;11.642;2022-07-12T05:10:48;4.15;;;3.65;;
26977;SDS011;56314;48.088;11.642;2022-07-12T05:13:13;6.00;;;4.10;;
26977;SDS011;56314;48.088;11.642;2022-07-12T05:15:39;4.00;;;3.60;;
26977;SDS011;56314;48.088;11.642;2022-07-12T05:18:04;5.78;;;3.65;;
26977;SDS011;56314;48.088;11.642;2022-07-12T05:20:30;4.20;;;3.67;;
26977;SDS011;56314;48.088;11.642;2022-07-12T05:22:55;5.30;;;3.67;;
26977;SDS011;56314;48.088;11.642;2022-07-12T05:25:21;4.57;;;4.18;;
26977;SDS011;56314;48.088;11.642;2022-07-12T05:27:46;4.82;;;3.40;;
26977;SDS011;56314;48.088;11.642;2022-07-12T05:30:11;4.43;;;4.03;;
26977;SDS011;56314;48.088;11.642;2022-07-12T05:32:37;5.20;;;4.05;;
26977;SDS011;56314;48.088;11.642;2022-07-12T05:35:02;4.38;;;3.88;;
26977;SDS011;56314;48.088;11.642;2022-07-12T05:37:29;3.97;;;3.30;;
26977;SDS011;56314;48.088;11.642;2022-07-12T05:39:54;4.35;;;3.92;;
26977;SDS011;56314;48.088;11.642;2022-07-12T05:42:19;4.20;;;3.78;;
26977;SDS011;56314;48.088;11.642;2022-07-12T05:44:45;6.13;;;3.65;;
26977;SDS011;56314;48.088;11.642;2022-07-12T05:47:11;5.88;;;3.90;;
26977;SDS011;56314;48.088;11.642;2022-07-12T05:49:36;10.63;;;3.92;;
26977;SDS011;56314;48.088;11.642;2022-07-12T05:52:01;7.60;;;3.95;;
26977;SDS011;56314;48.088;11.642;2022-07-12T05:54:45;4.80;;;3.53;;
26977;SDS011;56314;48.088;11.642;2022-07-12T05:57:11;8.20;;;5.50;;
26977;SDS011;56314;48.088;11.642;2022-07-12T05:59:36;5.13;;;3.85;;
26977;SDS011;56314;48.088;11.642;2022-07-12T06:02:03;5.22;;;4.03;;
26977;SDS011;56314;48.088;11.642;2022-07-12T06:04:29;5.07;;;4.25;;
26977;SDS011;56314;48.088;11.642;2022-07-12T06:06:54;5.40;;;3.67;;
26977;SDS011;56314;48.088;11.642;2022-07-12T06:09:20;4.07;;;3.60;;
26977;SDS011;56314;48.088;11.642;2022-07-12T06:11:45;4.53;;;3.95;;
26977;SDS011;56314;48.088;11.642;2022-07-12T06:14:11;4.13;;;3.63;;
26977;SDS011;56314;48.088;11.642;2022-07-12T06:16:36;4.00;;;3.53;;
26977;SDS011;56314;48.088;11.642;2022-07-12T06:19:01;3.90;;;3.60;;
26977;SDS011;56314;48.088;11.642;2022-07-12T06:21:27;5.13;;;3.40;;
26977;SDS011;56314;48.088;11.642;2022-07-12T06:23:52;6.38;;;3.72;;
26977;SDS011;56314;48.088;11.642;2022-07-12T06:26:18;4.40;;;3.47;;
26977;SDS011;56314;48.088;11.642;2022-07-12T06:28:43;4.45;;;3.75;;
26977;SDS011;56314;48.088;11.642;2022-07-12T06:31:09;4.82;;;3.58;;
26977;SDS011;56314;48.088;11.642;2022-07-12T06:33:34;5.65;;;3.60;;
26977;SDS011;56314;48.088;11.642;2022-07-12T06:36:00;3.83;;;3.50;;
26977;SDS011;56314;48.088;11.642;2022-07-12T06:38:25;12.88;;;4.15;;
26977;SDS011;56314;48.088;11.642;2022-07-12T06:40:51;6.35;;;3.67;;
26977;SDS011;56314;48.088;11.642;2022-07-12T06:43:16;9.05;;;3.58;;
26977;SDS011;56314;48.088;11.642;2022-07-12T06:45:41;4.85;;;3.10;;
26977;SDS011;56314;48.088;11.642;2022-07-12T06:48:07;4.22;;;2.58;;
26977;SDS011;56314;48.088;11.642;2022-07-12T06:50:33;4.43;;;2.90;;
26977;SDS011;56314;48.088;11.642;2022-07-12T06:52:58;3.20;;;2.70;;
26977;SDS011;56314;48.088;11.642;2022-07-12T06:55:23;5.93;;;3.90;;
26977;SDS011;56314;48.088;11.642;2022-07-12T06:57:49;5.25;;;3.13;;
26977;SDS011;56314;48.088;11.642;2022-07-12T07:00:14;5.00;;;3.72;;
26977;SDS011;56314;48.088;11.642;2022-07-12T07:02:40;6.47;;;3.13;;
26977;SDS011;56314;48.088;11.642;2022-07-12T07:05:05;8.30;;;3.08;;
26977;SDS011;56314;48.088;11.642;2022-07-12T07:07:31;5.45;;;2.92;;
26977;SDS011;56314;48.088;11.642;2022-07-12T07:09:57;5.18;;;3.00;;
26977;SDS011;56314;48.088;11.642;2022-07-12T07:12:22;3.13;;;2.72;;
26977;SDS011;56314;48.088;11.642;2022-07-12T07:14:48;5.47;;;3.00;;
26977;SDS011;56314;48.088;11.642;2022-07-12T07:17:14;5.28;;;2.72;;
26977;SDS011;56314;48.088;11.642;2022-07-12T07:19:41;3.85;;;3.10;;
26977;SDS011;56314;48.088;11.642;2022-07-12T07:22:07;3.75;;;2.40;;
26977;SDS011;56314;48.088;11.642;2022-07-12T07:24:32;5.57;;;2.97;;
26977;SDS011;56314;48.088;11.642;2022-07-12T07:26:57;2.97;;;2.67;;
26977;SDS011;56314;48.088;11.642;2022-07-12T07:29:23;4.10;;;2.72;;
26977;SDS011;56314;48.088;11.642;2022-07-12T07:34:32;2.90;;;2.13;;
26977;SDS011;56314;48.088;11.642;2022-07-12T07:36:57;4.70;;;2.40;;
26977;SDS011;56314;48.088;11.642;2022-07-12T07:39:23;2.47;;;2.28;;
26977;SDS011;56314;48.088;11.642;2022-07-12T07:41:48;2.22;;;2.03;;
26977;SDS011;56314;48.088;11.642;2022-07-12T07:44:13;2.25;;;1.88;;
26977;SDS011;56314;48.088;11.642;2022-07-12T07:46:39;1.88;;;1.77;;
26977;SDS011;56314;48.088;11.642;2022-07-12T07:49:04;2.70;;;2.05;;
26977;SDS011;56314;48.088;11.642;2022-07-12T07:51:29;2.97;;;1.65;;
26977;SDS011;56314;48.088;11.642;2022-07-12T07:53:55;1.88;;;1.55;;
26977;SDS011;56314;48.088;11.642;2022-07-12T07:56:20;2.15;;;1.80;;
26977;SDS011;56314;48.088;11.642;2022-07-12T07:58:45;1.83;;;1.70;;
26977;SDS011;56314;48.088;11.642;2022-07-12T08:01:11;2.53;;;1.50;;
26977;SDS011;56314;48.088;11.642;2022-07-12T08:03:36;2.85;;;1.48;;
26977;SDS011;56314;48.088;11.642;2022-07-12T08:06:01;1.40;;;1.30;;
26977;SDS011;56314;48.088;11.642;2022-07-12T08:08:27;1.92;;;1.83;;
26977;SDS011;56314;48.088;11.642;2022-07-12T08:10:53;2.10;;;1.95;;
26977;SDS011;56314;48.088;11.642;2022-07-12T08:13:19;1.63;;;1.52;;
26977;SDS011;56314;48.088;11.642;2022-07-12T08:15:44;1.75;;;1.40;;
26977;SDS011;56314;48.088;11.642;2022-07-12T08:18:10;3.80;;;1.30;;
26977;SDS011;56314;48.088;11.642;2022-07-12T08:20:35;2.00;;;1.67;;
26977;SDS011;56314;48.088;11.642;2022-07-12T08:23:01;2.10;;;1.60;;
26977;SDS011;56314;48.088;11.642;2022-07-12T08:25:26;4.20;;;1.40;;
26977;SDS011;56314;48.088;11.642;2022-07-12T08:27:52;2.53;;;1.48;;
26977;SDS011;56314;48.088;11.642;2022-07-12T08:30:17;2.00;;;1.30;;
26977;SDS011;56314;48.088;11.642;2022-07-12T08:32:43;2.67;;;1.50;;
26977;SDS011;56314;48.088;11.642;2022-07-12T08:35:09;2.33;;;1.80;;
26977;SDS011;56314;48.088;11.642;2022-07-12T08:37:34;2.78;;;1.70;;
26977;SDS011;56314;48.088;11.642;2022-07-12T08:40:00;3.13;;;1.27;;
26977;SDS011;56314;48.088;11.642;2022-07-12T08:42:25;1.50;;;1.40;;
26977;SDS011;56314;48.088;11.642;2022-07-12T08:44:56;2.55;;;1.70;;
26977;SDS011;56314;48.088;11.642;2022-07-12T08:47:22;1.35;;;1.25;;
26977;SDS011;56314;48.088;11.642;2022-07-12T08:52:37;2.22;;;1.20;;
26977;SDS011;56314;48.088;11.642;2022-07-12T08:55:25;1.63;;;1.50;;
26977;SDS011;56314;48.088;11.642;2022-07-12T08:57:53;2.92;;;1.65;;
26977;SDS011;56314;48.088;11.642;2022-07-12T09:00:21;3.47;;;1.50;;
26977;SDS011;56314;48.088;11.642;2022-07-12T09:02:48;1.60;;;1.30;;
26977;SDS011;56314;48.088;11.642;2022-07-12T09:05:16;1.90;;;1.35;;
26977;SDS011;56314;48.088;11.642;2022-07-12T09:07:44;4.68;;;1.90;;
26977;SDS011;56314;48.088;11.642;2022-07-12T09:10:10;2.25;;;2.00;;
26977;SDS011;56314;48.088;11.642;2022-07-12T09:12:37;1.60;;;1.50;;
26977;SDS011;56314;48.088;11.642;2022-07-12T09:15:14;5.38;;;2.22;;
26977;SDS011;56314;48.088;11.642;2022-07-12T09:17:59;2.20;;;1.40;;
26977;SDS011;56314;48.088;11.642;2022-07-12T09:20:33;2.47;;;2.03;;
26977;SDS011;56314;48.088;11.642;2022-07-12T09:23:03;2.10;;;1.60;;
26977;SDS011;56314;48.088;11.642;2022-07-12T09:25:29;2.72;;;1.58;;
26977;SDS011;56314;48.088;11.642;2022-07-12T09:27:57;2.30;;;1.70;;
26977;SDS011;56314;48.088;11.642;2022-07-12T09:30:24;6.32;;;3.58;;
26977;SDS011;56314;48.088;11.642;2022-07-12T09:33:02;2.17;;;1.63;;
26977;SDS011;56314;48.088;11.642;2022-07-12T09:38:39;3.10;;;1.50;;
26977;SDS011;56314;48.088;11.642;2022-07-12T09:41:15;2.85;;;1.50;;
26977;SDS011;56314;48.088;11.642;2022-07-12T09:43:43;2.42;;;1.40;;
26977;SDS011;56314;48.088;11.642;2022-07-12T09:46:09;1.58;;;1.40;;
26977;SDS011;56314;48.088;11.642;2022-07-12T09:48:34;2.13;;;1.50;;
26977;SDS011;56314;48.088;11.642;2022-07-12T09:51:02;2.30;;;1.20;;
26977;SDS011;56314;48.088;11.642;2022-07-12T09:53:29;1.63;;;1.50;;
26977;SDS011;56314;48.088;11.642;2022-07-12T09:56:04;3.03;;;1.40;;
26977;SDS011;56314;48.088;11.642;2022-07-12T09:58:31;2.42;;;1.70;;
26977;SDS011;56314;48.088;11.642;2022-07-12T10:01:02;1.48;;;1.38;;
26977;SDS011;56314;48.088;11.642;2022-07-12T10:03:29;2.03;;;1.92;;
26977;SDS011;56314;48.088;11.642;2022-07-12T10:05:57;3.80;;;1.60;;
26977;SDS011;56314;48.088;11.642;2022-07-12T10:08:26;1.95;;;1.75;;
26977;SDS011;56314;48.088;11.642;2022-07-12T10:10:51;3.42;;;1.70;;
26977;SDS011;56314;48.088;11.642;2022-07-12T10:13:18;5.57;;;2.00;;
26977;SDS011;56314;48.088;11.642;2022-07-12T10:15:46;2.17;;;1.70;;
26977;SDS011;56314;48.088;11.642;2022-07-12T10:18:18;1.38;;;1.27;;
26977;SDS011;56314;48.088;11.642;2022-07-12T10:20:48;3.10;;;2.17;;
26977;SDS011;56314;48.088;11.642;2022-07-12T10:28:42;1.55;;;1.45;;
26977;SDS011;56314;48.088;11.642;2022-07-12T10:31:24;2.30;;;2.10;;
26977;SDS011;56314;48.088;11.642;2022-07-12T10:39:20;1.60;;;1.50;;
26977;SDS011;56314;48.088;11.642;2022-07-12T10:44:34;4.07;;;1.52;;
26977;SDS011;56314;48.088;11.642;2022-07-12T10:47:00;3.08;;;1.35;;
26977;SDS011;56314;48.088;11.642;2022-07-12T10:49:28;2.35;;;1.75;;
26977;SDS011;56314;48.088;11.642;2022-07-12T10:54:42;2.03;;;1.83;;
26977;SDS011;56314;48.088;11.642;2022-07-12T10:57:15;2.05;;;1.90;;
26977;SDS011;56314;48.088;11.642;2022-07-12T10:59:41;1.95;;;1.20;;
26977;SDS011;56314;48.088;11.642;2022-07-12T11:02:10;0.90;;;0.90;;
26977;SDS011;56314;48.088;11.642;2022-07-12T11:04:36;2.88;;;1.02;;
26977;SDS011;56314;48.088;11.642;2022-07-12T11:07:11;1.25;;;1.20;;
26977;SDS011;56314;48.088;11.642;2022-07-12T11:09:42;1.50;;;1.40;;
26977;SDS011;56314;48.088;11.642;2022-07-12T11:12:07;1.73;;;1.00;;
26977;SDS011;56314;48.088;11.642;2022-07-12T11:14:32;1.05;;;1.05;;
26977;SDS011;56314;48.088;11.642;2022-07-12T11:16:59;1.35;;;1.20;;
26977;SDS011;56314;48.088;11.642;2022-07-12T11:19:28;3.38;;;3.17;;
26977;SDS011;56314;48.088;11.642;2022-07-12T11:21:55;2.33;;;1.70;;
26977;SDS011;56314;48.088;11.642;2022-07-12T11:26:49;1.60;;;1.02;;
26977;SDS011;56314;48.088;11.642;2022-07-12T11:29:15;1.90;;;1.20;;
26977;SDS011;56314;48.088;11.642;2022-07-12T11:31:41;1.30;;;1.20;;
26977;SDS011;56314;48.088;11.642;2022-07-12T11:34:06;1.25;;;1.15;;
26977;SDS011;56314;48.088;11.642;2022-07-12T11:36:32;0.88;;;0.88;;
26977;SDS011;56314;48.088;11.642;2022-07-12T11:38:58;1.05;;;1.00;;
26977;SDS011;56314;48.088;11.642;2022-07-12T11:41:25;1.77;;;0.90;;
26977;SDS011;56314;48.088;11.642;2022-07-12T11:43:50;1.05;;;1.05;;
26977;SDS011;56314;48.088;11.642;2022-07-12T11:46:16;1.42;;;0.98;;
26977;SDS011;56314;48.088;11.642;2022-07-12T11:48:42;1.42;;;1.10;;
26977;SDS011;56314;48.088;11.642;2022-07-12T11:51:10;1.83;;;0.70;;
26977;SDS011;56314;48.088;11.642;2022-07-12T11:53:37;0.80;;;0.80;;
26977;SDS011;56314;48.088;11.642;2022-07-12T11:56:04;2.38;;;1.08;;
26977;SDS011;56314;48.088;11.642;2022-07-12T11:58:32;1.10;;;1.00;;
26977;SDS011;56314;48.088;11.642;2022-07-12T12:00:59;1.10;;;1.10;;
26977;SDS011;56314;48.088;11.642;2022-07-12T12:03:25;3.10;;;1.30;;
26977;SDS011;56314;48.088;11.642;2022-07-12T12:05:54;1.30;;;1.20;;
26977;SDS011;56314;48.088;11.642;2022-07-12T12:08:21;1.70;;;1.10;;
26977;SDS011;56314;48.088;11.642;2022-07-12T12:10:55;1.20;;;1.10;;
26977;SDS011;56314;48.088;11.642;2022-07-12T12:13:27;1.27;;;0.98;;
26977;SDS011;56314;48.088;11.642;2022-07-12T12:15:54;0.70;;;0.70;;
26977;SDS011;56314;48.088;11.642;2022-07-12T12:18:40;0.90;;;0.90;;
26977;SDS011;56314;48.088;11.642;2022-07-12T12:21:07;1.08;;;0.93;;
26977;SDS011;56314;48.088;11.642;2022-07-12T12:23:34;1.33;;;1.20;;
26977;SDS011;56314;48.088;11.642;2022-07-12T12:26:34;0.80;;;0.80;;
26977;SDS011;56314;48.088;11.642;2022-07-12T12:28:55;1.08;;;0.98;;
26977;SDS011;56314;48.088;11.642;2022-07-12T12:31:21;1.38;;;1.08;;
26977;SDS011;56314;48.088;11.642;2022-07-12T12:38:47;1.35;;;0.90;;
26977;SDS011;56314;48.088;11.642;2022-07-12T12:41:14;0.90;;;0.90;;
26977;SDS011;56314;48.088;11.642;2022-07-12T12:43:40;0.90;;;0.90;;
26977;SDS011;56314;48.088;11.642;2022-07-12T12:46:06;1.13;;;0.90;;
26977;SDS011;56314;48.088;11.642;2022-07-12T12:48:32;3.13;;;0.90;;
26977;SDS011;56314;48.088;11.642;2022-07-12T12:53:29;2.42;;;0.93;;
26977;SDS011;56314;48.088;11.642;2022-07-12T12:55:55;1.20;;;1.10;;
26977;SDS011;56314;48.088;11.642;2022-07-12T12:58:22;1.92;;;0.88;;
26977;SDS011;56314;48.088;11.642;2022-07-12T13:00:50;1.35;;;1.00;;
26977;SDS011;56314;48.088;11.642;2022-07-12T13:03:19;1.92;;;0.80;;
26977;SDS011;56314;48.088;11.642;2022-07-12T13:05:45;1.52;;;0.90;;
26977;SDS011;56314;48.088;11.642;2022-07-12T13:08:12;4.70;;;2.20;;
26977;SDS011;56314;48.088;11.642;2022-07-12T13:10:39;2.22;;;1.15;;
26977;SDS011;56314;48.088;11.642;2022-07-12T13:13:05;2.80;;;1.10;;
26977;SDS011;56314;48.088;11.642;2022-07-12T13:15:32;1.13;;;1.02;;
26977;SDS011;56314;48.088;11.642;2022-07-12T13:17:57;3.70;;;1.10;;
26977;SDS011;56314;48.088;11.642;2022-07-12T13:20:23;1.60;;;0.90;;
26977;SDS011;56314;48.088;11.642;2022-07-12T13:22:50;1.08;;;0.80;;
26977;SDS011;56314;48.088;11.642;2022-07-12T13:25:16;1.98;;;1.00;;
26977;SDS011;56314;48.088;11.642;2022-07-12T13:27:42;0.93;;;0.90;;
26977;SDS011;56314;48.088;11.642;2022-07-12T13:30:09;1.05;;;0.93;;
26977;SDS011;56314;48.088;11.642;2022-07-12T13:32:37;1.58;;;1.15;;
26977;SDS011;56314;48.088;11.642;2022-07-12T13:35:03;3.70;;;1.00;;
26977;SDS011;56314;48.088;11.642;2022-07-12T13:37:30;1.25;;;1.00;;
26977;SDS011;56314;48.088;11.642;2022-07-12T13:39:55;1.48;;;0.80;;
26977;SDS011;56314;48.088;11.642;2022-07-12T13:42:40;2.40;;;0.90;;
26977;SDS011;56314;48.088;11.642;2022-07-12T13:45:11;1.23;;;0.82;;
26977;SDS011;56314;48.088;11.642;2022-07-12T13:47:39;1.13;;;0.90;;
26977;SDS011;56314;48.088;11.642;2022-07-12T13:50:05;3.15;;;1.10;;
26977;SDS011;56314;48.088;11.642;2022-07-12T13:52:31;1.15;;;0.90;;
26977;SDS011;56314;48.088;11.642;2022-07-12T13:54:57;0.90;;;0.85;;
26977;SDS011;56314;48.088;11.642;2022-07-12T13:57:22;0.98;;;0.90;;
26977;SDS011;56314;48.088;11.642;2022-07-12T13:59:48;2.72;;;2.13;;
26977;SDS011;56314;48.088;11.642;2022-07-12T14:02:13;1.05;;;0.95;;
26977;SDS011;56314;48.088;11.642;2022-07-12T14:04:38;1.25;;;1.10;;
26977;SDS011;56314;48.088;11.642;2022-07-12T14:07:04;1.20;;;1.10;;
26977;SDS011;56314;48.088;11.642;2022-07-12T14:09:29;1.58;;;0.90;;
26977;SDS011;56314;48.088;11.642;2022-07-12T14:11:55;1.80;;;0.90;;
26977;SDS011;56314;48.088;11.642;2022-07-12T14:14:20;2.90;;;0.90;;
26977;SDS011;56314;48.088;11.642;2022-07-12T14:17:04;2.10;;;0.95;;
26977;SDS011;56314;48.088;11.642;2022-07-12T14:19:29;1.35;;;1.20;;
26977;SDS011;56314;48.088;11.642;2022-07-12T14:21:55;3.20;;;1.00;;
26977;SDS011;56314;48.088;11.642;2022-07-12T14:24:20;1.85;;;0.90;;
26977;SDS011;56314;48.088;11.642;2022-07-12T14:26:45;1.95;;;0.73;;
26977;SDS011;56314;48.088;11.642;2022-07-12T14:29:11;1.67;;;1.00;;
26977;SDS011;56314;48.088;11.642;2022-07-12T14:31:36;1.17;;;1.08;;
26977;SDS011;56314;48.088;11.642;2022-07-12T14:34:02;2.05;;;0.80;;
26977;SDS011;56314;48.088;11.642;2022-07-12T14:36:27;3.53;;;1.38;;
26977;SDS011;56314;48.088;11.642;2022-07-12T14:38:53;1.55;;;0.80;;
26977;SDS011;56314;48.088;11.642;2022-07-12T14:41:18;1.00;;;0.85;;
26977;SDS011;56314;48.088;11.642;2022-07-12T14:43:43;2.05;;;1.10;;
26977;SDS011;56314;48.088;11.642;2022-07-12T14:46:09;2.20;;;0.80;;
26977;SDS011;56314;48.088;11.642;2022-07-12T14:48:34;1.67;;;1.00;;
26977;SDS011;56314;48.088;11.642;2022-07-12T14:51:00;0.82;;;0.82;;
26977;SDS011;56314;48.088;11.642;2022-07-12T14:53:25;1.20;;;1.20;;
26977;SDS011;56314;48.088;11.642;2022-07-12T14:55:51;1.75;;;1.02;;
26977;SDS011;56314;48.088;11.642;2022-07-12T14:58:16;3.13;;;0.88;;
26977;SDS011;56314;48.088;11.642;2022-07-12T15:00:41;1.88;;;0.80;;
26977;SDS011;56314;48.088;11.642;2022-07-12T15:03:08;4.57;;;3.85;;
26977;SDS011;56314;48.088;11.642;2022-07-12T15:05:34;2.33;;;1.10;;
26977;SDS011;56314;48.088;11.642;2022-07-12T15:07:59;1.88;;;0.90;;